.
WxDataArchive / Data Records for 2013-07-13
2013-07-12 July 2013 2013-07-14

Data Records for Saturday, 13 July 2013

Time	Temp	Chill	HIndex	Humid	Dewpt	 Wind 	HiWind	WindDir	Rain 	Barom 
-----	----	-----	------	-----	-----	------	------	-------	-----	----- 
00:00	65.8	65.8	65.8	75	57.6	0	0	---	0.00	30.100 
00:05	65.6	65.6	65.6	75	57.5	0	0	---	0.00	30.100 
00:10	65.6	65.6	65.6	76	57.8	0	0	---	0.00	30.100 
00:15	65.6	65.6	65.6	76	57.8	0	1	112	0.00	30.095 
00:20	65.8	65.8	65.8	76	58.0	0	0	---	0.00	30.095 
00:25	65.8	65.8	65.8	76	58.0	0	0	---	0.00	30.095 
00:30	65.6	65.6	65.6	76	57.8	0	0	---	0.00	30.094 
00:35	65.6	65.6	65.6	76	57.8	0	0	---	0.00	30.094 
00:40	65.5	65.5	65.5	77	58.1	0	0	---	0.00	30.094 
00:45	65.3	65.3	65.3	77	57.9	0	0	---	0.00	30.095 
00:50	65.2	65.2	65.2	78	58.2	0	0	---	0.00	30.095 
00:55	65.0	65.0	65.0	78	58.0	0	0	---	0.00	30.095 
01:00	64.8	64.8	64.8	79	58.1	0	0	---	0.00	30.096 
01:05	64.7	64.7	64.7	80	58.4	0	1	112	0.00	30.096 
01:10	64.8	64.8	64.8	80	58.5	0	1	112	0.00	30.096 
01:15	65.0	65.0	65.0	79	58.3	0	1	112	0.00	30.099 
01:20	65.2	65.2	65.2	79	58.5	0	1	112	0.00	30.099 
01:25	65.2	65.2	65.2	79	58.5	0	1	112	0.00	30.099 
01:30	65.2	65.2	65.2	79	58.5	0	0	---	0.00	30.105 
01:35	65.0	65.0	65.0	79	58.3	0	0	---	0.00	30.105 
01:40	64.7	64.7	64.7	79	58.0	0	0	---	0.00	30.105 
01:45	64.3	64.3	64.3	80	58.0	0	0	---	0.00	30.107 
01:50	64.2	64.2	64.2	80	57.9	0	0	---	0.00	30.107 
01:55	64.0	64.0	64.0	81	58.0	0	0	---	0.00	30.107 
02:00	63.7	63.7	63.7	81	57.8	0	0	---	0.00	30.100 
02:05	63.4	63.4	63.4	82	57.8	0	0	---	0.00	30.100 
02:10	63.2	63.2	63.2	82	57.6	0	0	---	0.00	30.100 
02:15	63.1	63.1	63.1	83	57.8	0	0	---	0.00	30.103 
02:20	62.7	62.7	62.7	83	57.5	0	0	---	0.00	30.103 
02:25	62.4	62.4	62.4	84	57.5	0	0	---	0.00	30.103 
02:30	62.3	62.3	62.3	84	57.4	0	0	---	0.00	30.103 
02:35	62.0	62.0	62.0	85	57.4	0	0	---	0.00	30.103 
02:40	61.8	61.8	61.8	86	57.6	0	0	---	0.00	30.103 
02:45	61.8	61.8	61.8	86	57.6	0	0	---	0.00	30.098 
02:50	61.6	61.6	61.6	87	57.7	0	0	---	0.00	30.098 
02:55	61.5	61.5	61.5	87	57.6	0	0	---	0.00	30.098 
03:00	61.3	61.3	61.3	88	57.7	0	0	---	0.00	30.098 
03:05	61.3	61.3	61.3	88	57.7	0	0	---	0.00	30.098 
03:10	61.3	61.3	61.3	88	57.7	0	0	---	0.00	30.098 
03:15	61.2	61.2	61.2	88	57.6	0	0	---	0.00	30.096 
03:20	61.2	61.2	61.2	89	57.9	0	0	---	0.00	30.096 
03:25	61.2	61.2	61.2	89	57.9	0	0	---	0.00	30.096 
03:30	61.2	61.2	61.2	89	57.9	0	0	---	0.00	30.100 
03:35	61.2	61.2	61.2	90	58.2	0	0	---	0.00	30.100 
03:40	61.0	61.0	61.0	90	58.0	0	0	---	0.00	30.100 
03:45	60.9	60.9	60.9	90	57.9	0	0	---	0.00	30.105 
03:50	60.9	60.9	60.9	90	57.9	0	0	---	0.00	30.105 
03:55	60.9	60.9	60.9	90	57.9	0	0	---	0.00	30.105 
04:00	60.7	60.7	60.7	90	57.7	0	0	---	0.00	30.102 
04:05	60.7	60.7	60.7	90	57.7	0	0	---	0.00	30.102 
04:10	60.7	60.7	60.7	90	57.7	0	0	---	0.00	30.102 
04:15	60.7	60.7	60.7	91	58.1	0	0	---	0.00	30.110 
04:20	60.7	60.7	60.7	91	58.1	0	0	---	0.00	30.110 
04:25	60.5	60.5	60.5	91	57.9	0	0	---	0.00	30.110 
04:30	60.5	60.5	60.5	91	57.9	0	0	---	0.00	30.113 
04:35	60.5	60.5	60.5	91	57.9	0	0	---	0.00	30.113 
04:40	60.4	60.4	60.4	91	57.8	0	0	---	0.00	30.113 
04:45	60.4	60.4	60.4	91	57.8	0	0	---	0.00	30.112 
04:50	60.2	60.2	60.2	91	57.6	0	0	---	0.00	30.112 
04:55	60.2	60.2	60.2	91	57.6	0	0	---	0.00	30.112 
05:00	60.2	60.2	60.2	92	57.9	0	0	---	0.00	30.114 
05:05	60.2	60.2	60.2	92	57.9	0	0	---	0.00	30.114 
05:10	60.2	60.2	60.2	92	57.9	0	0	---	0.00	30.114 
05:15	60.2	60.2	60.2	92	57.9	0	0	---	0.00	30.114 
05:20	60.2	60.2	60.2	92	57.9	0	0	---	0.00	30.114 
05:25	60.2	60.2	60.2	92	57.9	0	0	---	0.00	30.114 
05:30	60.4	60.4	60.4	92	58.1	0	0	---	0.00	30.124 
05:35	60.4	60.4	60.4	92	58.1	0	0	---	0.00	30.124 
05:40	60.4	60.4	60.4	92	58.1	0	0	---	0.00	30.124 
05:45	60.4	60.4	60.4	92	58.1	0	0	---	0.00	30.128 
05:50	60.4	60.4	60.4	92	58.1	0	0	---	0.00	30.128 
05:55	60.4	60.4	60.4	93	58.4	0	0	---	0.00	30.128 
06:00	60.4	60.4	60.4	93	58.4	0	0	---	0.00	30.126 
06:05	60.4	60.4	60.4	93	58.4	0	0	---	0.00	30.126 
06:10	60.4	60.4	60.4	93	58.4	0	0	---	0.00	30.126 
06:15	60.2	60.2	60.2	93	58.2	0	0	---	0.00	30.130 
06:20	60.2	60.2	60.2	93	58.2	0	0	---	0.00	30.130 
06:25	60.4	60.4	60.4	93	58.4	0	0	---	0.00	30.130 
06:30	60.4	60.4	60.4	93	58.4	0	0	---	0.00	30.129 
06:35	60.4	60.4	60.4	93	58.4	0	0	---	0.00	30.129 
06:40	60.4	60.4	60.4	93	58.4	0	0	---	0.00	30.129 
06:45	60.4	60.4	60.4	93	58.4	0	0	---	0.00	30.131 
06:50	60.5	60.5	60.5	93	58.5	0	0	---	0.00	30.131 
06:55	60.7	60.7	60.7	94	59.0	0	0	---	0.00	30.131 
07:00	60.9	60.9	60.9	94	59.2	0	0	---	0.00	30.130 
07:05	61.2	61.2	61.2	94	59.5	0	0	---	0.00	30.130 
07:10	61.3	61.3	61.3	93	59.3	0	1	112	0.00	30.130 
07:15	61.6	61.6	61.6	93	59.6	0	2	112	0.00	30.133 
07:20	62.0	62.0	62.0	93	59.9	0	1	112	0.00	30.133 
07:25	62.3	62.3	62.3	92	59.9	0	1	112	0.00	30.133 
07:30	62.7	62.7	62.7	92	60.3	0	3	112	0.00	30.132 
07:35	63.4	63.4	63.4	91	60.7	0	3	112	0.00	30.132 
07:40	64.2	64.2	64.2	89	60.9	0	2	112	0.00	30.132 
07:45	64.7	64.7	64.7	87	60.7	0	3	112	0.00	30.128 
07:50	65.2	65.2	65.2	86	60.9	0	2	112	0.00	30.128 
07:55	65.6	65.6	65.6	85	61.0	0	1	112	0.00	30.128 
08:00	66.3	66.3	66.3	84	61.3	0	2	112	0.00	30.127 
08:05	66.8	66.8	66.8	83	61.5	0	2	112	0.00	30.127 
08:10	67.4	67.4	67.4	83	62.0	0	2	112	0.00	30.127 
08:15	68.1	68.1	68.1	82	62.4	0	3	112	0.00	30.127 
08:20	68.8	68.8	68.8	82	63.1	0	1	112	0.00	30.127 
08:25	69.1	69.1	69.1	80	62.7	0	2	112	0.00	30.127 
08:30	69.3	69.3	69.3	80	62.9	2	5	112	0.00	30.125 
08:35	69.3	69.3	69.3	81	63.2	2	5	112	0.00	30.125 
08:40	69.4	69.4	69.4	82	63.7	2	9	90	0.00	30.125 
08:45	69.6	69.6	69.6	82	63.9	2	6	112	0.00	30.125 
08:50	69.6	69.6	69.6	82	63.9	3	6	112	0.00	30.125 
08:55	69.4	69.4	69.4	83	64.0	3	5	112	0.00	30.125 
09:00	69.4	69.4	69.4	83	64.0	2	6	90	0.00	30.125 
09:05	69.9	69.9	69.9	83	64.5	2	6	90	0.00	30.125 
09:10	70.4	70.4	70.4	83	65.0	2	6	90	0.00	30.125 
09:15	70.8	70.8	70.8	82	65.0	2	4	68	0.00	30.128 
09:20	71.1	71.1	71.1	81	65.0	2	5	90	0.00	30.128 
09:25	71.3	71.3	71.3	81	65.2	2	6	90	0.00	30.128 
09:30	71.6	71.6	71.6	80	65.1	1	5	90	0.00	30.138 
09:35	72.3	72.3	72.3	80	65.8	1	2	90	0.00	30.138 
09:40	72.5	72.5	72.5	78	65.2	2	6	90	0.00	30.138 
09:45	73.0	73.0	73.0	79	66.1	1	3	112	0.00	30.137 
09:50	73.3	73.3	73.3	77	65.6	1	4	112	0.00	30.137 
09:55	73.7	73.7	73.7	77	66.0	1	3	112	0.00	30.137 
10:00	73.9	73.9	73.9	76	65.8	1	5	90	0.00	30.136 
10:05	74.4	74.4	74.4	77	66.7	0	2	112	0.00	30.136 
10:10	74.9	74.9	74.9	75	66.4	1	3	112	0.00	30.136 
10:15	75.1	75.1	76.3	75	66.6	1	5	90	0.00	30.141 
10:20	75.4	75.4	76.8	73	66.1	1	4	112	0.00	30.141 
10:25	75.4	75.4	76.8	73	66.1	2	5	90	0.00	30.141 
10:30	75.6	75.6	77.0	74	66.7	2	5	90	0.00	30.138 
10:35	75.6	75.6	77.0	74	66.7	2	4	90	0.00	30.138 
10:40	76.1	76.1	77.6	73	66.8	1	5	90	0.00	30.138 
10:45	76.3	76.3	77.9	71	66.2	3	7	90	0.00	30.141 
10:50	76.5	76.5	78.1	72	66.8	2	5	112	0.00	30.141 
10:55	76.3	76.3	77.8	74	67.4	1	4	68	0.00	30.141 
11:00	76.7	76.7	78.3	73	67.4	1	3	68	0.00	30.139 
11:05	76.8	76.8	78.5	70	66.3	2	5	68	0.00	30.139 
11:10	77.0	77.0	78.8	69	66.0	2	4	112	0.00	30.139 
11:15	76.8	76.8	78.5	71	66.7	1	4	68	0.00	30.140 
11:20	76.7	76.7	78.4	69	65.7	1	4	112	0.00	30.140 
11:25	77.2	77.2	79.0	67	65.4	3	5	68	0.00	30.140 
11:30	77.7	77.7	79.6	68	66.3	2	5	68	0.00	30.139 
11:35	78.3	78.3	80.2	66	66.0	1	4	112	0.00	30.139 
11:40	78.3	78.3	80.2	66	66.0	3	9	90	0.00	30.139 
11:45	78.6	78.6	80.7	67	66.7	2	5	90	0.00	30.134 
11:50	79.0	79.0	81.2	67	67.1	1	3	90	0.00	30.134 
11:55	79.2	79.2	81.0	61	64.6	2	5	112	0.00	30.134 
12:00	79.4	79.4	81.5	64	66.1	1	4	112	0.00	30.139 
12:05	79.6	79.6	81.4	61	64.9	2	7	90	0.00	30.139 
12:10	79.6	79.6	81.5	62	65.4	1	4	90	0.00	30.139 
12:15	79.4	79.4	81.5	64	66.1	2	4	68	0.00	30.142 
12:20	79.4	79.4	81.5	64	66.1	1	5	90	0.00	30.142 
12:25	79.0	79.0	80.8	62	64.8	2	5	90	0.00	30.142 
12:30	78.5	78.5	80.3	63	64.8	1	5	112	0.00	30.140 
12:35	78.5	78.5	80.3	62	64.4	2	5	90	0.00	30.140 
12:40	78.6	78.6	80.3	60	63.5	2	5	90	0.00	30.140 
12:45	78.3	78.3	80.0	60	63.2	2	6	90	0.00	30.146 
12:50	78.3	78.3	80.0	60	63.2	2	9	68	0.00	30.146 
12:55	78.8	78.8	80.4	59	63.2	2	5	90	0.00	30.146 
13:00	79.2	79.2	80.9	60	64.1	3	7	90	0.00	30.141 
13:05	79.4	79.4	81.0	59	63.8	3	7	90	0.00	30.141 
13:10	79.8	79.8	81.3	57	63.2	2	7	90	0.00	30.141 
13:15	79.9	79.9	81.3	56	62.8	3	6	90	0.00	30.139 
13:20	80.7	80.7	82.4	58	64.5	3	7	90	0.00	30.139 
13:25	80.9	80.9	82.5	57	64.2	3	7	90	0.00	30.139 
13:30	80.7	80.7	82.3	57	64.0	3	5	68	0.00	30.137 
13:35	80.7	80.7	82.2	56	63.5	2	5	90	0.00	30.137 
13:40	81.1	81.1	82.3	54	62.9	4	8	90	0.00	30.137 
13:45	81.1	81.1	82.5	55	63.4	3	6	112	0.00	30.139 
13:50	81.2	81.2	82.9	57	64.5	1	4	90	0.00	30.139 
13:55	81.1	81.1	82.3	54	62.9	2	4	90	0.00	30.139 
14:00	81.1	81.1	82.8	57	64.4	2	5	90	0.00	30.136 
14:05	81.6	81.6	82.8	53	62.8	2	6	90	0.00	30.136 
14:10	81.4	81.4	82.7	54	63.1	3	6	90	0.00	30.136 
14:15	81.2	81.2	82.5	54	62.9	2	4	90	0.00	30.138 
14:20	80.9	80.9	82.1	54	62.7	2	5	90	0.00	30.138 
14:25	81.2	81.2	82.6	55	63.5	3	6	90	0.00	30.138 
14:30	82.0	82.0	83.7	56	64.7	2	5	90	0.00	30.133 
14:35	82.0	82.0	83.1	52	62.6	3	9	90	0.00	30.133 
14:40	82.0	82.0	83.6	55	64.2	3	7	112	0.00	30.133 
14:45	81.8	81.8	83.2	54	63.5	2	6	112	0.00	30.129 
14:50	81.8	81.8	83.2	54	63.5	3	7	90	0.00	30.129 
14:55	81.8	81.8	83.3	55	64.0	3	6	90	0.00	30.129 
15:00	82.2	82.2	83.5	53	63.3	2	7	112	0.00	30.126 
15:05	82.4	82.4	83.7	53	63.5	3	9	90	0.00	30.126 
15:10	81.8	81.8	83.0	53	63.0	2	6	90	0.00	30.126 
15:15	81.2	81.2	82.5	54	62.9	2	6	90	0.00	30.127 
15:20	81.1	81.1	83.0	59	65.4	3	6	90	0.00	30.127 
15:25	81.1	81.1	82.3	54	62.9	3	9	90	0.00	30.127 
15:30	80.9	80.9	82.3	55	63.2	2	5	112	0.00	30.127 
15:35	81.2	81.2	82.9	57	64.5	1	3	112	0.00	30.127 
15:40	81.8	81.8	83.6	57	65.0	2	5	90	0.00	30.127 
15:45	81.6	81.6	82.9	54	63.3	2	7	90	0.00	30.122 
15:50	81.4	81.4	83.0	56	64.2	2	8	90	0.00	30.122 
15:55	82.0	82.0	83.4	54	63.7	3	7	90	0.00	30.122 
16:00	82.0	82.0	83.6	55	64.2	2	5	90	0.00	30.121 
16:05	82.0	82.0	83.6	55	64.2	3	7	112	0.00	30.121 
16:10	82.2	82.2	83.8	55	64.4	2	9	112	0.00	30.121 
16:15	82.6	82.6	84.5	56	65.3	2	6	90	0.00	30.114 
16:20	82.4	82.4	83.9	54	64.1	3	7	112	0.00	30.114 
16:25	82.0	82.0	83.2	53	63.2	2	6	90	0.00	30.114 
16:30	81.8	81.8	83.2	54	63.5	3	6	90	0.00	30.111 
16:35	82.2	82.2	83.6	54	63.9	3	8	90	0.00	30.111 
16:40	82.8	82.8	84.2	53	63.9	2	6	90	0.00	30.111 
16:45	83.0	83.0	84.7	54	64.6	2	5	68	0.00	30.111 
16:50	83.2	83.2	84.7	53	64.3	3	7	90	0.00	30.111 
16:55	83.0	83.0	84.7	54	64.6	3	10	90	0.00	30.111 
17:00	82.6	82.6	84.5	56	65.3	2	7	90	0.00	30.112 
17:05	82.6	82.6	84.1	54	64.2	3	9	90	0.00	30.112 
17:10	82.6	82.6	84.0	53	63.7	3	7	90	0.00	30.112 
17:15	82.8	82.8	84.2	53	63.9	2	4	112	0.00	30.111 
17:20	83.2	83.2	84.5	52	63.7	2	5	112	0.00	30.111 
17:25	83.0	83.0	84.1	51	63.0	3	7	90	0.00	30.111 
17:30	82.4	82.4	83.9	54	64.1	2	6	90	0.00	30.111 
17:35	82.4	82.4	83.9	54	64.1	2	6	90	0.00	30.111 
17:40	82.8	82.8	84.4	54	64.4	2	7	90	0.00	30.111 
17:45	82.2	82.2	83.5	53	63.3	3	6	90	0.00	30.113 
17:50	82.0	82.0	83.4	54	63.7	2	6	90	0.00	30.113 
17:55	82.0	82.0	83.4	54	63.7	3	9	112	0.00	30.113 
18:00	82.2	82.2	84.2	57	65.4	1	5	112	0.00	30.109 
18:05	82.4	82.4	84.2	56	65.1	2	6	90	0.00	30.109 
18:10	82.6	82.6	84.1	54	64.2	2	7	135	0.00	30.109 
18:15	82.2	82.2	84.0	56	64.9	3	7	90	0.00	30.109 
18:20	82.2	82.2	83.8	55	64.4	3	6	68	0.00	30.109 
18:25	82.2	82.2	84.3	58	65.9	1	5	68	0.00	30.109 
18:30	82.4	82.4	84.1	55	64.6	2	5	90	0.00	30.106 
18:35	82.2	82.2	83.8	55	64.4	3	7	90	0.00	30.106 
18:40	81.8	81.8	83.3	55	64.0	3	6	90	0.00	30.106 
18:45	81.6	81.6	83.2	56	64.4	3	7	90	0.00	30.108 
18:50	81.6	81.6	83.4	57	64.9	1	3	90	0.00	30.108 
18:55	81.6	81.6	83.4	57	64.9	1	4	90	0.00	30.108 
19:00	81.6	81.6	83.2	56	64.4	1	5	68	0.00	30.110 
19:05	81.6	81.6	83.5	58	65.4	2	6	90	0.00	30.110 
19:10	81.4	81.4	83.3	58	65.2	3	7	90	0.00	30.110 
19:15	81.1	81.1	82.9	58	64.9	3	6	68	0.00	30.107 
19:20	80.9	80.9	82.8	59	65.2	3	6	90	0.00	30.107 
19:25	80.7	80.7	82.5	59	65.0	3	6	90	0.00	30.107 
19:30	80.7	80.7	82.7	60	65.5	2	5	90	0.00	30.108 
19:35	80.7	80.7	82.7	60	65.5	2	5	90	0.00	30.108 
19:40	80.7	80.7	82.7	60	65.5	3	6	90	0.00	30.108 
19:45	80.5	80.5	82.5	61	65.8	3	6	90	0.00	30.107 
19:50	80.3	80.3	82.3	61	65.6	3	6	90	0.00	30.107 
19:55	80.1	80.1	82.2	62	65.9	1	4	90	0.00	30.107 
20:00	79.9	79.9	81.9	62	65.7	2	5	90	0.00	30.114 
20:05	79.8	79.8	81.9	63	66.1	2	5	90	0.00	30.114 
20:10	79.6	79.6	81.7	64	66.3	2	5	90	0.00	30.114 
20:15	79.4	79.4	81.5	64	66.1	1	5	112	0.00	30.118 
20:20	79.2	79.2	81.2	64	65.9	2	5	90	0.00	30.118 
20:25	79.0	79.0	81.0	65	66.2	2	7	90	0.00	30.118 
20:30	78.8	78.8	80.8	65	66.0	2	4	90	0.00	30.117 
20:35	78.6	78.6	80.6	66	66.3	1	4	90	0.00	30.117 
20:40	78.5	78.5	80.5	66	66.2	2	4	90	0.00	30.117 
20:45	78.3	78.3	80.3	67	66.4	1	3	90	0.00	30.121 
20:50	78.1	78.1	80.1	68	66.7	2	6	90	0.00	30.121 
20:55	77.7	77.7	79.6	69	66.7	2	5	90	0.00	30.121 
21:00	77.6	77.6	79.5	69	66.6	2	5	90	0.00	30.123 
21:05	77.2	77.2	79.0	70	66.6	2	6	90	0.00	30.123 
21:10	77.0	77.0	78.8	71	66.9	2	6	68	0.00	30.123 
21:15	76.7	76.7	78.4	71	66.6	1	3	90	0.00	30.122 
21:20	76.5	76.5	78.1	72	66.8	2	5	90	0.00	30.122 
21:25	76.3	76.3	77.8	73	67.0	1	4	90	0.00	30.122 
21:30	76.1	76.1	77.6	73	66.8	2	5	90	0.00	30.122 
21:35	76.0	76.0	77.5	73	66.7	1	3	90	0.00	30.122 
21:40	75.6	75.6	77.0	74	66.7	1	3	90	0.00	30.122 
21:45	75.4	75.4	76.6	75	66.9	2	4	90	0.00	30.130 
21:50	75.3	75.3	76.5	75	66.8	1	4	68	0.00	30.130 
21:55	75.1	75.1	76.2	76	67.0	1	4	90	0.00	30.130 
22:00	74.9	74.9	74.9	76	66.8	1	6	90	0.00	30.137 
22:05	74.7	74.7	74.7	77	67.0	1	3	90	0.00	30.137 
22:10	74.6	74.6	74.6	77	66.9	1	3	90	0.00	30.137 
22:15	74.4	74.4	74.4	78	67.1	1	4	90	0.00	30.141 
22:20	74.2	74.2	74.2	78	66.9	1	4	90	0.00	30.141 
22:25	74.0	74.0	74.0	78	66.7	1	3	90	0.00	30.141 
22:30	73.9	73.9	73.9	79	67.0	1	2	90	0.00	30.146 
22:35	73.7	73.7	73.7	79	66.8	1	3	90	0.00	30.146 
22:40	73.7	73.7	73.7	80	67.1	1	4	90	0.00	30.146 
22:45	73.5	73.5	73.5	81	67.3	1	4	90	0.00	30.153 
22:50	73.3	73.3	73.3	81	67.1	2	5	112	0.00	30.153 
22:55	73.2	73.2	73.2	81	67.0	1	3	90	0.00	30.153 
23:00	73.2	73.2	73.2	81	67.0	1	4	90	0.00	30.152 
23:05	73.0	73.0	73.0	81	66.8	1	3	90	0.00	30.152 
23:10	72.8	72.8	72.8	82	67.0	1	3	90	0.00	30.152 
23:15	72.7	72.7	72.7	82	66.9	0	1	90	0.00	30.150 
23:20	72.3	72.3	72.3	83	66.8	1	3	90	0.00	30.150 
23:25	72.1	72.1	72.1	83	66.6	1	3	90	0.00	30.150 
23:30	72.1	72.1	72.1	84	67.0	1	6	90	0.00	30.153 
23:35	72.0	72.0	72.0	84	66.9	1	4	90	0.00	30.153 
23:40	72.0	72.0	72.0	84	66.9	1	4	90	0.00	30.153 
23:45	72.0	72.0	72.0	84	66.9	1	5	90	0.00	30.153 
23:50	72.0	72.0	72.0	84	66.9	1	4	90	0.00	30.153 
23:55	72.0	72.0	72.0	84	66.9	1	5	90	0.00	30.153 

CoCoRaHS
IN-AL-39
A2 Web Hosting
Creative Commons License
GoDaddy
search engine by freefind advanced

loaded 2018-11-13 17:02:12 • last modified 2010-11-18 10:43:29
Privacy PolicyDisclaimer
• wx.awcolley.com is powered by PmWiki v.2002016 •
• all content (unless otherwise noted) © 2018 A W Colley